createdAt,value
2017-08-25T00:00:55.405Z,81.50
2017-08-25T00:03:23.785Z,81.50
2017-08-25T00:05:52.166Z,81.40
2017-08-25T00:08:20.752Z,81.20
2017-08-25T00:10:49.118Z,81.30
2017-08-25T00:13:17.444Z,81.20
2017-08-25T00:15:46.207Z,81.30
2017-08-25T00:18:14.664Z,81.40
2017-08-25T00:20:43.006Z,81.50
2017-08-25T00:23:11.665Z,81.30
2017-08-25T00:25:40.020Z,81.30
2017-08-25T00:28:08.532Z,81.20
2017-08-25T00:30:36.909Z,81.40
2017-08-25T00:33:05.311Z,81.50
2017-08-25T00:35:33.662Z,81.70
2017-08-25T00:38:02.520Z,81.80
2017-08-25T00:40:30.871Z,81.90
2017-08-25T00:42:59.209Z,82.20
2017-08-25T00:45:28.682Z,82.20
2017-08-25T00:47:57.024Z,82.30
2017-08-25T00:50:25.364Z,82.30
2017-08-25T00:52:53.817Z,82.40
2017-08-25T00:55:22.130Z,82.20
2017-08-25T00:57:50.460Z,82.20
2017-08-25T01:00:19.141Z,82.20
2017-08-25T01:02:47.471Z,82.00
2017-08-25T01:05:16.126Z,81.90
2017-08-25T01:07:44.738Z,82.00
2017-08-25T01:10:13.115Z,82.10
2017-08-25T01:12:41.508Z,82.20
2017-08-25T01:15:10.274Z,82.40
2017-08-25T01:17:38.635Z,82.50
2017-08-25T01:20:07.028Z,82.20
2017-08-25T01:22:35.734Z,82.10
2017-08-25T01:25:04.106Z,82.10
2017-08-25T01:27:33.349Z,82.00
2017-08-25T01:30:02.078Z,82.00
2017-08-25T01:32:30.449Z,82.10
2017-08-25T01:34:58.800Z,82.10
2017-08-25T01:37:27.257Z,82.00
2017-08-25T01:39:55.605Z,82.20
2017-08-25T01:42:24.060Z,82.10
2017-08-25T01:44:52.504Z,82.10
2017-08-25T01:47:20.888Z,82.10
2017-08-25T01:49:49.242Z,81.80
2017-08-25T01:52:18.065Z,82.50
2017-08-25T01:54:46.441Z,82.70
2017-08-25T01:57:14.925Z,82.80
2017-08-25T01:59:43.489Z,82.70
2017-08-25T02:02:11.949Z,82.80
2017-08-25T02:04:40.405Z,82.90
2017-08-25T02:07:09.163Z,82.70
2017-08-25T02:09:37.541Z,83.50
2017-08-25T02:12:05.873Z,83.00
2017-08-25T02:14:34.345Z,83.20
2017-08-25T02:17:02.737Z,83.10
2017-08-25T02:19:31.102Z,83.20
2017-08-25T02:21:59.632Z,83.30
2017-08-25T02:24:27.960Z,83.30
2017-08-25T02:26:56.361Z,83.20
2017-08-25T02:29:25.149Z,83.30
2017-08-25T02:31:53.466Z,83.50
2017-08-25T02:34:21.831Z,83.60
2017-08-25T02:36:50.315Z,83.80
2017-08-25T02:39:18.694Z,84.10
2017-08-25T02:41:47.018Z,84.20
2017-08-25T02:44:16.313Z,84.40
2017-08-25T02:46:44.681Z,84.30
2017-08-25T02:49:13.033Z,84.20
2017-08-25T02:51:41.786Z,84.30
2017-08-25T02:54:10.180Z,84.30
2017-08-25T02:56:39.601Z,84.30
2017-08-25T02:59:08.159Z,84.40
2017-08-25T03:01:36.481Z,84.30
2017-08-25T03:04:05.579Z,84.30
2017-08-25T03:06:34.109Z,84.30
2017-08-25T03:09:03.038Z,84.20
2017-08-25T03:11:31.484Z,84.20
2017-08-25T03:14:00.926Z,84.40
2017-08-25T03:16:29.359Z,84.30
2017-08-25T03:18:57.675Z,84.20
2017-08-25T03:21:26.171Z,84.20
2017-08-25T03:23:54.502Z,84.20
2017-08-25T03:26:23.581Z,84.30
2017-08-25T03:28:52.097Z,84.30
2017-08-25T03:31:20.422Z,84.40
2017-08-25T03:33:48.787Z,84.40
2017-08-25T03:36:17.391Z,84.40
2017-08-25T03:38:45.897Z,84.30
2017-08-25T03:41:14.329Z,84.60
2017-08-25T03:43:42.777Z,84.70
2017-08-25T03:46:11.136Z,84.70
2017-08-25T03:48:39.546Z,84.60
2017-08-25T03:51:08.832Z,84.30
2017-08-25T03:53:37.215Z,84.00
2017-08-25T03:56:06.504Z,84.00
2017-08-25T03:58:35.059Z,83.80
2017-08-25T04:01:03.419Z,83.80
2017-08-25T04:03:31.733Z,84.00
2017-08-25T04:06:00.397Z,83.90
2017-08-25T04:08:28.852Z,83.80
2017-08-25T04:10:57.201Z,83.60
2017-08-25T04:13:25.893Z,83.70
2017-08-25T04:15:54.245Z,83.60
2017-08-25T04:18:23.189Z,83.90
2017-08-25T04:20:51.712Z,83.90
2017-08-25T04:23:20.047Z,84.00
2017-08-25T04:25:48.427Z,84.30
2017-08-25T04:28:17.226Z,84.20
2017-08-25T04:30:45.581Z,84.10
2017-08-25T04:33:13.912Z,84.20
2017-08-25T04:35:42.751Z,84.00
2017-08-25T04:38:11.105Z,84.20
2017-08-25T04:40:39.472Z,84.20
2017-08-25T04:43:08.042Z,84.20
2017-08-25T04:45:36.355Z,84.20
2017-08-25T04:48:04.696Z,84.20
2017-08-25T04:50:33.516Z,84.10
2017-08-25T04:53:01.851Z,84.20
2017-08-25T04:55:30.743Z,84.20
2017-08-25T04:57:59.243Z,84.20
2017-08-25T05:00:27.603Z,84.20
2017-08-25T05:02:56.039Z,84.30
2017-08-25T05:05:24.387Z,84.30
2017-08-25T05:07:52.716Z,84.20
2017-08-25T05:10:21.046Z,84.10
2017-08-25T05:12:50.471Z,84.20
2017-08-25T05:15:18.840Z,84.10
2017-08-25T05:17:47.204Z,84.20
2017-08-25T05:20:15.716Z,84.40
2017-08-25T05:22:44.065Z,84.30
2017-08-25T05:25:12.404Z,84.10
2017-08-25T05:27:41.003Z,84.00
2017-08-25T05:30:09.382Z,83.70
2017-08-25T05:32:37.729Z,83.60
2017-08-25T05:35:07.271Z,83.60
2017-08-25T05:37:35.621Z,83.60
2017-08-25T05:40:04.952Z,83.40
2017-08-25T05:42:33.696Z,83.40
2017-08-25T05:45:02.023Z,83.40
2017-08-25T05:47:30.415Z,83.30
2017-08-25T05:49:59.133Z,83.20
2017-08-25T05:52:28.812Z,83.20
2017-08-25T05:54:57.169Z,82.90
2017-08-25T05:57:25.797Z,82.80
2017-08-25T05:59:54.129Z,83.00
2017-08-25T06:02:22.444Z,82.90
2017-08-25T06:04:51.093Z,82.80
2017-08-25T06:07:19.477Z,82.60
2017-08-25T06:09:47.818Z,82.60
2017-08-25T06:12:16.228Z,82.50
2017-08-25T06:14:44.934Z,82.30
2017-08-25T06:17:13.376Z,82.60
2017-08-25T06:19:41.866Z,82.60
2017-08-25T06:22:10.261Z,82.40
2017-08-25T06:24:39.440Z,82.30
2017-08-25T06:27:07.815Z,81.90
2017-08-25T06:29:36.194Z,82.50
2017-08-25T06:32:04.518Z,81.70
2017-08-25T06:34:32.869Z,81.70
2017-08-25T06:37:01.181Z,81.70
2017-08-25T06:39:29.545Z,81.90
2017-08-25T06:41:58.354Z,82.00
2017-08-25T06:44:26.721Z,81.80
2017-08-25T06:46:55.049Z,81.30
2017-08-25T06:49:23.712Z,80.90
2017-08-25T06:51:52.066Z,80.90
2017-08-25T06:54:20.397Z,80.60
2017-08-25T06:56:48.961Z,80.30
2017-08-25T06:59:17.289Z,80.00
2017-08-25T07:01:45.678Z,79.60
2017-08-25T07:04:14.261Z,79.20
2017-08-25T07:06:42.696Z,78.80
2017-08-25T07:09:11.074Z,78.70
2017-08-25T07:11:39.734Z,78.50
2017-08-25T07:14:08.066Z,78.20
2017-08-25T07:16:36.414Z,78.40
2017-08-25T07:19:06.154Z,78.50
2017-08-25T07:21:34.461Z,78.50
2017-08-25T07:24:02.772Z,78.30
2017-08-25T07:26:31.448Z,77.60
2017-08-25T07:28:59.768Z,76.40
2017-08-25T07:31:28.099Z,76.60
2017-08-25T07:33:56.632Z,76.80
2017-08-25T07:36:24.973Z,76.70
2017-08-25T07:38:53.316Z,75.00
2017-08-25T07:41:21.794Z,74.70
2017-08-25T07:43:50.143Z,74.70
2017-08-25T07:46:18.511Z,74.10
2017-08-25T07:48:47.229Z,73.80
2017-08-25T07:51:15.659Z,73.20
2017-08-25T07:53:44.081Z,72.00
2017-08-25T07:56:12.583Z,72.40
2017-08-25T07:58:40.939Z,71.30
2017-08-25T08:01:09.547Z,71.40
2017-08-25T08:03:38.335Z,70.80
2017-08-25T08:06:06.652Z,70.70
2017-08-25T08:08:35.033Z,70.90
2017-08-25T08:11:03.573Z,71.00
2017-08-25T08:13:31.897Z,70.90
2017-08-25T08:16:00.209Z,71.30
2017-08-25T08:18:29.670Z,71.00
2017-08-25T08:20:58.974Z,70.60
2017-08-25T08:23:28.105Z,69.60
2017-08-25T08:25:57.784Z,69.60
2017-08-25T08:28:26.173Z,68.40
2017-08-25T08:30:54.497Z,67.50
2017-08-25T08:33:23.021Z,67.50
2017-08-25T08:35:51.333Z,66.50
2017-08-25T08:38:19.649Z,65.30
2017-08-25T08:40:48.294Z,65.70
2017-08-25T08:43:16.643Z,67.10
2017-08-25T08:45:45.182Z,66.50
2017-08-25T08:48:14.512Z,65.60
2017-08-25T08:50:42.882Z,65.60
2017-08-25T08:53:11.993Z,65.30
2017-08-25T08:55:40.362Z,65.30
2017-08-25T08:58:09.337Z,64.80
2017-08-25T09:00:38.396Z,64.90
2017-08-25T09:03:07.767Z,63.80
2017-08-25T09:08:41.460Z,62.20
2017-08-25T09:11:10.075Z,61.80
2017-08-25T09:13:38.434Z,61.50
2017-08-25T09:16:08.032Z,60.70
2017-08-25T09:18:36.338Z,61.50
2017-08-25T09:21:04.959Z,61.10
2017-08-25T09:23:33.406Z,59.80
2017-08-25T09:26:01.798Z,57.60
2017-08-25T09:28:30.167Z,55.90
2017-08-25T09:31:02.525Z,57.50
2017-08-25T09:33:30.901Z,56.40
2017-08-25T09:35:59.197Z,54.80
2017-08-25T09:38:28.592Z,52.70
2017-08-25T09:40:57.015Z,52.60
2017-08-25T09:43:25.572Z,53.90
2017-08-25T09:45:54.316Z,55.10
2017-08-25T09:48:22.883Z,57.00
2017-08-25T09:50:51.587Z,58.30
2017-08-25T09:53:20.067Z,59.50
2017-08-25T09:55:48.940Z,60.40
2017-08-25T09:58:19.390Z,58.60
2017-08-25T10:00:48.940Z,57.40
2017-08-25T10:03:17.234Z,55.00
2017-08-25T10:05:45.581Z,52.80
2017-08-25T10:08:13.959Z,51.50
2017-08-25T10:10:49.490Z,51.60
2017-08-25T10:13:19.060Z,50.40
2017-08-25T10:15:49.244Z,51.80
2017-08-25T10:18:22.102Z,53.70
2017-08-25T10:20:53.548Z,56.10
2017-08-25T10:23:25.406Z,57.60
2017-08-25T10:25:54.641Z,57.70
2017-08-25T10:28:23.991Z,55.30
2017-08-25T10:30:52.863Z,55.30
2017-08-25T10:33:33.041Z,52.30
2017-08-25T10:36:17.370Z,51.60
2017-08-25T10:39:00.892Z,52.00
2017-08-25T10:41:41.818Z,51.80
2017-08-25T10:47:25.710Z,51.50
2017-08-25T10:49:54.390Z,52.80
2017-08-25T10:52:25.431Z,53.90
2017-08-25T10:54:55.918Z,54.70
2017-08-25T10:57:25.100Z,55.70
2017-08-25T10:59:53.665Z,54.90
2017-08-25T11:02:23.766Z,52.40
2017-08-25T11:04:52.179Z,50.00
2017-08-25T11:07:21.861Z,46.60
2017-08-25T11:09:50.684Z,46.10
2017-08-25T11:12:19.183Z,46.90
2017-08-25T11:14:48.524Z,48.60
2017-08-25T11:17:16.974Z,48.90
2017-08-25T11:19:45.340Z,47.70
2017-08-25T11:22:13.768Z,45.40
2017-08-25T11:24:44.513Z,45.10
2017-08-25T11:27:12.886Z,45.10
2017-08-25T11:29:41.296Z,45.30
2017-08-25T11:32:09.734Z,47.10
2017-08-25T11:34:38.088Z,47.30
2017-08-25T11:37:06.574Z,47.90
2017-08-25T11:39:35.163Z,48.80
2017-08-25T11:42:03.529Z,49.80
2017-08-25T11:44:32.621Z,49.40
2017-08-25T11:47:00.963Z,49.30
2017-08-25T11:49:29.284Z,49.70
2017-08-25T11:51:57.669Z,50.20
2017-08-25T11:54:26.004Z,49.00
2017-08-25T11:56:55.180Z,46.10
2017-08-25T11:59:23.573Z,46.10
2017-08-25T12:01:52.331Z,46.20
2017-08-25T12:04:20.661Z,46.70
2017-08-25T12:06:49.098Z,47.40
2017-08-25T12:09:17.674Z,47.60
2017-08-25T12:11:47.152Z,47.90
2017-08-25T12:14:15.879Z,48.70
2017-08-25T12:16:46.497Z,49.30
2017-08-25T12:19:15.463Z,48.90
2017-08-25T12:21:44.793Z,47.80
2017-08-25T12:24:14.831Z,46.20
2017-08-25T12:26:43.217Z,46.70
2017-08-25T12:29:11.540Z,48.00
2017-08-25T12:31:40.037Z,48.30
2017-08-25T12:34:08.765Z,47.90
2017-08-25T12:36:37.110Z,46.30
2017-08-25T12:39:05.730Z,46.90
2017-08-25T12:41:34.131Z,47.60
2017-08-25T12:44:02.504Z,48.10
2017-08-25T12:46:31.189Z,48.00
2017-08-25T12:49:00.302Z,48.90
2017-08-25T12:51:28.863Z,48.90
2017-08-25T12:53:57.614Z,48.70
2017-08-25T12:56:28.916Z,47.90
2017-08-25T12:58:57.300Z,48.20
2017-08-25T13:01:25.889Z,48.70
2017-08-25T13:03:54.224Z,49.00
2017-08-25T13:06:22.572Z,49.60
2017-08-25T13:08:51.929Z,50.20
2017-08-25T13:11:21.111Z,50.20
2017-08-25T13:13:51.254Z,50.10
2017-08-25T13:16:19.937Z,50.90
2017-08-25T13:18:48.584Z,51.10
2017-08-25T13:21:16.958Z,51.60
2017-08-25T13:23:45.678Z,51.90
2017-08-25T13:26:14.094Z,52.00
2017-08-25T13:28:42.747Z,52.40
2017-08-25T13:31:12.760Z,52.80
2017-08-25T13:33:41.273Z,51.80
2017-08-25T13:36:09.925Z,51.80
2017-08-25T13:38:40.761Z,51.10
2017-08-25T13:41:09.097Z,50.90
2017-08-25T13:43:37.425Z,50.30
2017-08-25T13:46:08.066Z,51.10
2017-08-25T13:48:37.373Z,51.90
2017-08-25T13:51:06.776Z,52.70
2017-08-25T13:53:35.302Z,52.70
2017-08-25T13:56:03.626Z,52.70
2017-08-25T13:58:31.954Z,52.40
2017-08-25T14:01:00.817Z,52.40
2017-08-25T14:03:31.304Z,53.00
2017-08-25T14:06:00.633Z,53.90
2017-08-25T14:08:29.779Z,54.10
2017-08-25T14:10:58.187Z,54.30
2017-08-25T14:13:28.409Z,53.50
2017-08-25T14:15:56.892Z,52.20
2017-08-25T14:18:25.579Z,51.10
2017-08-25T14:20:54.187Z,50.60
2017-08-25T14:23:22.948Z,49.70
2017-08-25T14:25:51.288Z,49.40
2017-08-25T14:28:19.667Z,48.70
2017-08-25T14:30:48.317Z,48.60
2017-08-25T14:33:16.662Z,48.60
2017-08-25T14:35:45.002Z,49.10
2017-08-25T14:38:13.607Z,48.50
2017-08-25T14:40:41.986Z,48.40
2017-08-25T14:43:10.300Z,47.60
2017-08-25T14:45:38.826Z,46.30
2017-08-25T14:48:08.171Z,46.30
2017-08-25T14:50:37.472Z,46.50
2017-08-25T14:53:05.934Z,45.40
2017-08-25T14:55:34.538Z,46.10
2017-08-25T14:58:02.898Z,47.20
2017-08-25T15:00:32.630Z,48.60
2017-08-25T15:03:01.734Z,49.40
2017-08-25T15:05:30.318Z,48.50
2017-08-25T15:07:58.902Z,45.60
2017-08-25T15:10:27.350Z,44.30
2017-08-25T15:12:56.487Z,45.60
2017-08-25T15:15:25.023Z,45.60
2017-08-25T15:17:53.402Z,46.30
2017-08-25T15:20:21.807Z,46.90
2017-08-25T15:22:50.644Z,47.90
2017-08-25T15:25:19.881Z,47.50
2017-08-25T15:27:48.966Z,47.90
2017-08-25T15:30:17.757Z,48.20
2017-08-25T15:32:46.110Z,48.90
2017-08-25T15:35:14.521Z,50.00
2017-08-25T15:37:43.049Z,50.70
2017-08-25T15:40:11.424Z,50.40
2017-08-25T15:42:39.753Z,51.10
2017-08-25T15:45:08.590Z,50.90
2017-08-25T15:47:36.940Z,50.90
2017-08-25T15:50:05.409Z,51.50
2017-08-25T15:52:33.990Z,51.60
2017-08-25T15:55:02.539Z,51.40
2017-08-25T15:57:31.050Z,51.50
2017-08-25T15:59:59.824Z,51.50
2017-08-25T16:02:29.483Z,51.90
2017-08-25T16:04:57.860Z,52.40
2017-08-25T16:07:26.440Z,52.10
2017-08-25T16:09:54.826Z,51.40
2017-08-25T16:12:23.224Z,50.80
2017-08-25T16:14:51.993Z,51.60
2017-08-25T16:17:20.919Z,51.80
2017-08-25T16:19:49.232Z,52.60
2017-08-25T16:22:18.019Z,52.60
2017-08-25T16:24:46.333Z,53.40
2017-08-25T16:27:14.679Z,54.00
2017-08-25T16:29:43.402Z,53.50
2017-08-25T16:32:12.361Z,53.80
2017-08-25T16:34:40.742Z,53.70
2017-08-25T16:37:10.968Z,54.00
2017-08-25T16:39:39.344Z,54.20
2017-08-25T16:42:07.671Z,54.10
2017-08-25T16:44:36.357Z,53.60
2017-08-25T16:47:05.726Z,53.40
2017-08-25T16:49:34.070Z,53.60
2017-08-25T16:52:02.823Z,54.00
2017-08-25T16:54:31.479Z,54.20
2017-08-25T16:57:00.853Z,54.40
2017-08-25T16:59:32.521Z,54.50
2017-08-25T17:02:10.440Z,54.70
2017-08-25T17:04:39.579Z,55.30
2017-08-25T17:07:08.798Z,55.40
2017-08-25T17:09:37.272Z,55.50
2017-08-25T17:12:05.885Z,56.00
2017-08-25T17:14:34.309Z,56.30
2017-08-25T17:17:02.907Z,56.70
2017-08-25T17:19:31.545Z,56.80
2017-08-25T17:21:59.949Z,57.30
2017-08-25T17:24:28.799Z,57.70
2017-08-25T17:26:57.545Z,58.10
2017-08-25T17:29:26.192Z,58.30
2017-08-25T17:31:55.856Z,58.50
2017-08-25T17:34:25.357Z,58.60
2017-08-25T17:36:53.857Z,58.90
2017-08-25T17:39:22.318Z,59.10
2017-08-25T17:41:51.359Z,59.40
2017-08-25T17:44:19.665Z,59.60
2017-08-25T17:46:48.151Z,59.90
2017-08-25T17:49:17.732Z,60.30
2017-08-25T17:51:46.059Z,60.50
2017-08-25T17:54:14.419Z,60.90
2017-08-25T17:56:43.555Z,61.30
2017-08-25T17:59:11.900Z,61.30
2017-08-25T18:01:40.735Z,61.40
2017-08-25T18:04:10.820Z,61.40
2017-08-25T18:06:42.580Z,61.70
2017-08-25T18:09:11.775Z,62.00
2017-08-25T18:11:40.125Z,62.20
2017-08-25T18:14:08.449Z,62.40
2017-08-25T18:16:36.934Z,62.60
2017-08-25T18:19:07.587Z,62.60
2017-08-25T18:21:36.067Z,62.90
2017-08-25T18:24:05.022Z,63.30
2017-08-25T18:26:33.538Z,63.40
2017-08-25T18:29:01.901Z,63.60
2017-08-25T18:31:30.493Z,63.80
2017-08-25T18:33:59.148Z,64.10
2017-08-25T18:36:27.546Z,64.50
2017-08-25T18:38:56.268Z,64.80
2017-08-25T18:41:24.911Z,65.20
2017-08-25T18:43:53.631Z,65.60
2017-08-25T18:46:22.296Z,66.00
2017-08-25T18:48:50.768Z,66.20
2017-08-25T18:51:19.164Z,66.30
2017-08-25T18:53:47.813Z,66.50
2017-08-25T18:56:16.639Z,66.80
2017-08-25T18:58:44.997Z,67.00
2017-08-25T19:01:13.721Z,67.20
2017-08-25T19:03:42.057Z,67.40
2017-08-25T19:06:10.527Z,67.80
2017-08-25T19:08:39.442Z,68.10
2017-08-25T19:11:07.799Z,68.40
2017-08-25T19:13:37.179Z,68.70
2017-08-25T19:16:07.135Z,68.80
2017-08-25T19:18:35.609Z,69.10
2017-08-25T19:21:03.950Z,69.30
2017-08-25T19:23:32.614Z,69.40
2017-08-25T19:26:01.159Z,69.70
2017-08-25T19:28:29.565Z,69.90
2017-08-25T19:30:58.014Z,70.10
2017-08-25T19:33:26.622Z,70.20
2017-08-25T19:35:55.530Z,70.40
2017-08-25T19:38:24.414Z,70.60
2017-08-25T19:40:53.019Z,70.80
2017-08-25T19:43:21.403Z,71.00
2017-08-25T19:45:50.026Z,71.10
2017-08-25T19:48:18.408Z,71.20
2017-08-25T19:50:48.062Z,71.40
2017-08-25T19:53:16.697Z,71.50
2017-08-25T19:55:45.198Z,71.70
2017-08-25T19:58:14.162Z,71.70
2017-08-25T20:00:42.921Z,71.80
2017-08-25T20:03:12.062Z,72.10
2017-08-25T20:05:42.015Z,72.30
2017-08-25T20:08:10.826Z,72.40
2017-08-25T20:10:39.209Z,72.60
2017-08-25T20:13:07.565Z,72.80
2017-08-25T20:15:36.416Z,73.00
2017-08-25T20:18:04.854Z,73.00
2017-08-25T20:20:33.451Z,73.90
2017-08-25T20:23:02.283Z,73.50
2017-08-25T20:25:30.875Z,73.50
2017-08-25T20:27:59.251Z,73.60
2017-08-25T20:30:28.099Z,73.70
2017-08-25T20:32:56.602Z,73.80
2017-08-25T20:35:27.633Z,73.80
2017-08-25T20:37:57.462Z,73.80
2017-08-25T20:40:26.150Z,73.80
2017-08-25T20:42:55.294Z,74.00
2017-08-25T20:45:23.952Z,74.10
2017-08-25T20:47:53.239Z,74.30
2017-08-25T20:50:21.738Z,74.60
2017-08-25T20:52:51.482Z,74.70
2017-08-25T20:55:20.737Z,74.40
2017-08-25T20:57:49.230Z,74.50
2017-08-25T21:00:17.882Z,74.50
2017-08-25T21:02:46.332Z,74.60
2017-08-25T21:05:14.665Z,74.70
2017-08-25T21:07:43.955Z,74.80
2017-08-25T21:10:12.351Z,75.00
2017-08-25T21:12:40.674Z,75.00
2017-08-25T21:15:09.369Z,75.00
2017-08-25T21:17:37.707Z,75.70
2017-08-25T21:20:06.066Z,76.30
2017-08-25T21:22:34.446Z,76.40
2017-08-25T21:25:03.467Z,76.50
2017-08-25T21:27:31.864Z,76.70
2017-08-25T21:30:00.472Z,76.70
2017-08-25T21:32:28.797Z,76.70
2017-08-25T21:34:57.204Z,76.70
2017-08-25T21:37:25.966Z,76.80
2017-08-25T21:39:54.392Z,76.60
2017-08-25T21:42:22.770Z,76.70
2017-08-25T21:44:51.345Z,76.70
2017-08-25T21:47:19.973Z,76.80
2017-08-25T21:49:48.294Z,76.90
2017-08-25T21:52:16.853Z,76.60
2017-08-25T21:54:45.166Z,76.50
2017-08-25T21:57:13.671Z,76.70
2017-08-25T21:59:42.448Z,77.70
2017-08-25T22:02:10.800Z,77.10
2017-08-25T22:04:39.149Z,76.90
2017-08-25T22:07:07.635Z,77.20
2017-08-25T22:09:36.142Z,77.50
2017-08-25T22:12:04.972Z,77.70
2017-08-25T22:14:33.692Z,77.80
2017-08-25T22:17:02.279Z,77.70
2017-08-25T22:19:30.657Z,77.60
2017-08-25T22:21:59.292Z,77.90
2017-08-25T22:24:28.880Z,78.10
2017-08-25T22:26:57.224Z,78.40
2017-08-25T22:29:25.758Z,78.50
2017-08-25T22:31:55.324Z,78.50
2017-08-25T22:34:24.365Z,78.30
2017-08-25T22:36:52.784Z,78.50
2017-08-25T22:39:21.167Z,78.60
2017-08-25T22:41:49.534Z,78.60
2017-08-25T22:44:18.274Z,78.70
2017-08-25T22:46:46.712Z,79.00
2017-08-25T22:49:15.042Z,79.00
2017-08-25T22:51:44.949Z,78.80
2017-08-25T22:54:13.283Z,79.10
2017-08-25T22:56:41.662Z,79.30
2017-08-25T22:59:10.991Z,80.30
2017-08-25T23:01:39.503Z,80.10
2017-08-25T23:04:08.165Z,79.70
2017-08-25T23:06:36.954Z,79.50
2017-08-25T23:09:05.304Z,79.40
2017-08-25T23:11:33.784Z,79.20
2017-08-25T23:14:02.397Z,79.30
2017-08-25T23:16:30.753Z,79.60
2017-08-25T23:18:59.068Z,79.70
2017-08-25T23:21:27.914Z,79.70
2017-08-25T23:23:56.251Z,79.50
2017-08-25T23:26:24.622Z,79.50
2017-08-25T23:28:54.665Z,79.70
2017-08-25T23:31:23.501Z,80.20
2017-08-25T23:33:51.950Z,80.40
2017-08-25T23:36:20.485Z,80.60
2017-08-25T23:38:48.877Z,80.70
2017-08-25T23:41:17.242Z,80.80
2017-08-25T23:43:45.781Z,80.80
2017-08-25T23:46:14.877Z,80.80
2017-08-25T23:48:43.312Z,81.10
2017-08-25T23:51:12.183Z,81.10
2017-08-25T23:53:41.482Z,81.30
2017-08-25T23:56:10.867Z,81.30
2017-08-25T23:58:39.493Z,81.40
